リヤド の空港の天気 - METARとTAF

キング・ハーリド国際空港(リヤド) ( OERK / RUH ) - サウジアラビア リヤド
飛行場実況気象(Metar)
観測時間05/29 02:00 AST (05/28 23:00 UTC)
風向・風速東 2m/s
視程10km以上
天気現象
なし
気温29℃
湿度23%
気圧1010hPa
METAROERK 282300Z 10003KT CAVOK 29/06 Q1010 NOSIG
過去の天気等 Google飛行場航空写真 Wunderground天気予報

過去48時間のMETAR

飛行場予報(TAF)
発表時間: 5/28 20:00 AST (5/28 17:00 UTC)
予報対象時間: 28日21時 AST ~ 30日3時 AST
風向・風速東 3m/s
視程10km以上
なし
29日9時 AST ~ 29日11時 AST に徐々に
風向・風速南南東 6m/s
視程6000m
なし
29日21時 AST ~ 29日23時 AST に徐々に
風向・風速東 4m/s
視程10km以上
なし
TAF OERK 281700Z 2818/2924 10005KT CAVOK
BECMG 2906/2908 16012KT 6000 NSC
BECMG 2918/2920 09008KT CAVOK